createdAt,value
2022-08-29T00:00:51.290Z,22.00
2022-08-29T00:03:22.153Z,22.00
2022-08-29T00:05:51.500Z,22.00
2022-08-29T00:08:21.317Z,22.00
2022-08-29T00:10:50.398Z,22.00
2022-08-29T00:13:19.044Z,21.90
2022-08-29T00:15:48.154Z,21.90
2022-08-29T00:18:20.689Z,21.90
2022-08-29T00:20:49.593Z,21.80
2022-08-29T00:23:18.827Z,21.80
2022-08-29T00:25:47.744Z,21.80
2022-08-29T00:28:16.628Z,21.70
2022-08-29T00:30:45.308Z,21.70
2022-08-29T00:33:14.363Z,21.70
2022-08-29T00:35:45.959Z,21.70
2022-08-29T00:38:18.338Z,21.70
2022-08-29T00:40:52.037Z,21.70
2022-08-29T00:43:26.780Z,21.70
2022-08-29T00:46:10.753Z,21.70
2022-08-29T00:48:41.656Z,21.70
2022-08-29T00:51:19.131Z,21.70
2022-08-29T00:53:52.162Z,21.60
2022-08-29T00:56:22.328Z,21.60
2022-08-29T00:58:55.499Z,21.60
2022-08-29T01:01:24.299Z,21.50
2022-08-29T01:03:54.627Z,21.50
2022-08-29T01:06:26.989Z,21.50
2022-08-29T01:08:57.394Z,21.50
2022-08-29T01:11:48.603Z,21.50
2022-08-29T01:14:18.133Z,21.50
2022-08-29T01:16:48.737Z,21.50
2022-08-29T01:19:30.716Z,21.40
2022-08-29T01:22:20.706Z,21.40
2022-08-29T01:24:54.329Z,21.40
2022-08-29T01:27:27.359Z,21.40
2022-08-29T01:29:56.743Z,21.40
2022-08-29T01:32:26.971Z,21.30
2022-08-29T01:34:56.256Z,21.30
2022-08-29T01:37:26.696Z,21.30
2022-08-29T01:39:56.739Z,21.30
2022-08-29T01:42:25.728Z,21.30
2022-08-29T01:44:57.649Z,21.30
2022-08-29T01:47:30.867Z,21.30
2022-08-29T01:49:59.818Z,21.30
2022-08-29T01:52:29.279Z,21.30
2022-08-29T01:55:00.099Z,21.30
2022-08-29T01:57:28.915Z,21.20
2022-08-29T01:59:57.513Z,21.20
2022-08-29T02:02:29.786Z,21.20
2022-08-29T02:04:58.816Z,21.20
2022-08-29T02:07:29.459Z,21.20
2022-08-29T02:09:59.862Z,21.20
2022-08-29T02:12:29.762Z,21.10
2022-08-29T02:14:58.605Z,21.10
2022-08-29T02:17:27.229Z,21.10
2022-08-29T02:19:55.820Z,21.10
2022-08-29T02:22:24.608Z,21.10
2022-08-29T02:24:53.112Z,21.10
2022-08-29T02:27:23.207Z,21.00
2022-08-29T02:29:53.137Z,21.00
2022-08-29T02:32:22.009Z,21.00
2022-08-29T02:34:50.623Z,21.00
2022-08-29T02:37:19.208Z,20.90
2022-08-29T02:39:47.792Z,20.90
2022-08-29T02:42:16.482Z,20.90
2022-08-29T02:44:46.492Z,20.90
2022-08-29T02:47:14.992Z,20.80
2022-08-29T02:49:43.800Z,20.80
2022-08-29T02:52:12.983Z,20.80
2022-08-29T02:54:41.644Z,20.80
2022-08-29T02:57:10.491Z,20.80
2022-08-29T02:59:39.050Z,20.80
2022-08-29T03:02:09.108Z,20.70
2022-08-29T03:04:37.740Z,20.70
2022-08-29T03:07:06.404Z,20.60
2022-08-29T03:09:35.076Z,20.70
2022-08-29T03:12:03.975Z,20.60
2022-08-29T03:14:32.746Z,20.60
2022-08-29T03:17:01.935Z,20.60
2022-08-29T03:19:32.083Z,20.60
2022-08-29T03:22:06.545Z,20.50
2022-08-29T03:24:37.062Z,20.50
2022-08-29T03:27:06.648Z,20.50
2022-08-29T03:29:35.266Z,20.50
2022-08-29T03:32:04.614Z,20.50
2022-08-29T03:34:36.001Z,20.40
2022-08-29T03:37:05.059Z,20.40
2022-08-29T03:39:36.712Z,20.40
2022-08-29T03:42:06.364Z,20.40
2022-08-29T03:44:36.304Z,20.40
2022-08-29T03:47:05.270Z,20.30
2022-08-29T03:49:36.038Z,20.30
2022-08-29T03:52:06.162Z,20.30
2022-08-29T03:54:34.801Z,20.30
2022-08-29T03:57:04.621Z,20.30
2022-08-29T03:59:33.248Z,20.30
2022-08-29T04:02:02.036Z,20.20
2022-08-29T04:04:48.304Z,20.20
2022-08-29T04:07:18.400Z,20.20
2022-08-29T04:09:47.004Z,20.20
2022-08-29T04:12:15.691Z,20.20
2022-08-29T04:14:44.290Z,20.20
2022-08-29T04:17:12.932Z,20.20
2022-08-29T04:19:41.525Z,20.10
2022-08-29T04:22:10.153Z,20.10
2022-08-29T04:24:40.224Z,20.10
2022-08-29T04:27:08.828Z,20.10
2022-08-29T04:29:38.296Z,20.10
2022-08-29T04:32:07.283Z,20.10
2022-08-29T04:34:35.831Z,20.10
2022-08-29T04:37:04.551Z,20.10
2022-08-29T04:39:33.539Z,20.10
2022-08-29T04:42:03.677Z,20.10
2022-08-29T04:44:32.273Z,20.10
2022-08-29T04:47:01.062Z,20.10
2022-08-29T04:49:29.665Z,20.10
2022-08-29T04:51:58.149Z,20.10
2022-08-29T04:54:26.647Z,20.00
2022-08-29T04:56:55.544Z,20.00
2022-08-29T04:59:27.612Z,20.00
2022-08-29T05:01:56.600Z,20.00
2022-08-29T05:04:26.020Z,20.00
2022-08-29T05:06:54.584Z,20.00
2022-08-29T05:09:23.263Z,20.00
2022-08-29T05:11:52.022Z,20.00
2022-08-29T05:14:20.536Z,19.90
2022-08-29T05:16:50.437Z,19.90
2022-08-29T05:19:19.637Z,19.90
2022-08-29T05:21:49.363Z,19.90
2022-08-29T05:24:18.159Z,19.90
2022-08-29T05:26:47.167Z,19.90
2022-08-29T05:29:16.095Z,19.90
2022-08-29T05:31:45.812Z,19.90
2022-08-29T05:34:34.773Z,19.90
2022-08-29T05:37:07.425Z,19.90
2022-08-29T05:39:37.208Z,19.80
2022-08-29T05:42:08.451Z,19.80
2022-08-29T05:44:38.143Z,19.80
2022-08-29T05:47:08.652Z,19.80
2022-08-29T05:49:39.999Z,19.80
2022-08-29T05:52:09.001Z,19.80
2022-08-29T05:54:40.800Z,19.80
2022-08-29T05:57:14.289Z,19.80
2022-08-29T05:59:47.396Z,19.80
2022-08-29T06:02:16.626Z,19.80
2022-08-29T06:04:47.203Z,19.80
2022-08-29T06:07:16.158Z,19.80
2022-08-29T06:09:46.080Z,19.80
2022-08-29T06:12:16.318Z,19.90
2022-08-29T06:14:50.382Z,19.90
2022-08-29T06:17:20.099Z,19.90
2022-08-29T06:19:53.250Z,19.90
2022-08-29T06:22:22.550Z,19.90
2022-08-29T06:24:55.030Z,19.90
2022-08-29T06:27:26.513Z,20.00
2022-08-29T06:29:57.286Z,20.00
2022-08-29T06:32:27.825Z,20.00
2022-08-29T06:34:57.763Z,20.00
2022-08-29T06:37:26.432Z,20.00
2022-08-29T06:39:55.150Z,20.00
2022-08-29T06:42:25.705Z,20.00
2022-08-29T06:44:57.888Z,20.00
2022-08-29T06:47:26.620Z,20.00
2022-08-29T06:49:55.312Z,20.00
2022-08-29T06:52:25.252Z,20.10
2022-08-29T06:54:53.819Z,20.10
2022-08-29T06:57:22.575Z,20.20
2022-08-29T06:59:51.240Z,20.20
2022-08-29T07:02:19.908Z,20.30
2022-08-29T07:04:48.678Z,20.30
2022-08-29T07:07:17.271Z,20.40
2022-08-29T07:09:47.509Z,20.40
2022-08-29T07:12:16.111Z,20.40
2022-08-29T07:14:44.714Z,20.40
2022-08-29T07:17:25.703Z,20.40
2022-08-29T07:19:55.293Z,20.50
2022-08-29T07:22:26.173Z,20.50
2022-08-29T07:24:56.881Z,20.50
2022-08-29T07:27:25.375Z,20.50
2022-08-29T07:29:54.204Z,20.50
2022-08-29T07:32:25.740Z,20.50
2022-08-29T07:34:56.295Z,20.50
2022-08-29T07:37:25.513Z,20.60
2022-08-29T07:39:55.612Z,20.50
2022-08-29T07:42:24.336Z,20.60
2022-08-29T07:44:52.836Z,20.60
2022-08-29T07:47:21.555Z,20.60
2022-08-29T07:49:50.154Z,20.60
2022-08-29T07:52:18.761Z,20.60
2022-08-29T07:54:47.555Z,20.70
2022-08-29T07:57:20.092Z,20.70
2022-08-29T07:59:48.830Z,20.70
2022-08-29T08:02:17.880Z,20.70
2022-08-29T08:04:46.896Z,20.80
2022-08-29T08:07:21.073Z,20.80
2022-08-29T08:09:57.855Z,20.90
2022-08-29T08:12:27.834Z,20.90
2022-08-29T08:14:56.898Z,21.00
2022-08-29T08:17:25.891Z,21.10
2022-08-29T08:19:54.590Z,21.10
2022-08-29T08:22:23.174Z,21.10
2022-08-29T08:24:51.764Z,21.20
2022-08-29T08:27:20.373Z,21.20
2022-08-29T08:29:50.303Z,21.10
2022-08-29T08:32:19.246Z,21.20
2022-08-29T08:34:48.456Z,21.20
2022-08-29T08:37:27.787Z,21.30
2022-08-29T08:39:58.177Z,21.30
2022-08-29T08:42:40.020Z,21.40
2022-08-29T08:45:12.562Z,21.50
2022-08-29T08:47:45.340Z,21.50
2022-08-29T08:50:21.310Z,21.60
2022-08-29T08:52:57.517Z,21.70
2022-08-29T08:55:38.303Z,21.70
2022-08-29T08:58:17.097Z,21.80
2022-08-29T09:00:56.555Z,21.90
2022-08-29T09:04:10.548Z,21.90
2022-08-29T09:06:55.617Z,22.00
2022-08-29T09:09:36.322Z,22.00
2022-08-29T09:12:19.785Z,22.10
2022-08-29T09:15:03.221Z,22.20
2022-08-29T09:17:42.011Z,22.20
2022-08-29T09:20:15.135Z,22.30
2022-08-29T09:22:58.841Z,22.30
2022-08-29T09:25:30.178Z,22.30
2022-08-29T09:27:59.584Z,22.30
2022-08-29T09:30:31.057Z,22.30
2022-08-29T09:33:04.508Z,22.40
2022-08-29T09:35:39.659Z,22.40
2022-08-29T09:38:11.309Z,22.40
2022-08-29T09:40:50.484Z,22.40
2022-08-29T09:43:27.880Z,22.50
2022-08-29T09:46:17.656Z,22.60
2022-08-29T09:48:51.128Z,22.70
2022-08-29T09:51:29.494Z,22.80
2022-08-29T09:54:16.887Z,22.80
2022-08-29T09:56:54.170Z,22.90
2022-08-29T09:59:31.368Z,23.00
2022-08-29T10:02:31.707Z,23.00
2022-08-29T10:05:14.193Z,23.00
2022-08-29T10:07:52.227Z,23.10
2022-08-29T10:10:28.052Z,23.10
2022-08-29T10:13:05.241Z,23.10
2022-08-29T10:15:50.349Z,23.10
2022-08-29T10:18:37.789Z,23.20
2022-08-29T10:21:19.961Z,23.10
2022-08-29T10:24:18.992Z,23.10
2022-08-29T10:26:58.622Z,23.10
2022-08-29T10:29:49.280Z,23.10
2022-08-29T10:32:35.802Z,23.10
2022-08-29T10:35:14.451Z,23.20
2022-08-29T10:37:57.933Z,23.20
2022-08-29T10:40:32.430Z,23.30
2022-08-29T10:43:30.438Z,23.30
2022-08-29T10:46:13.903Z,23.40
2022-08-29T10:48:51.746Z,23.40
2022-08-29T10:51:29.592Z,23.40
2022-08-29T10:54:15.160Z,23.50
2022-08-29T10:56:49.776Z,23.50
2022-08-29T10:59:33.386Z,23.60
2022-08-29T11:02:12.693Z,23.70
2022-08-29T11:04:49.267Z,23.80
2022-08-29T11:07:23.944Z,23.80
2022-08-29T11:10:00.672Z,23.90
2022-08-29T11:12:37.175Z,24.00
2022-08-29T11:15:15.735Z,24.10
2022-08-29T11:17:48.397Z,24.10
2022-08-29T11:20:27.708Z,24.10
2022-08-29T11:23:01.822Z,24.10
2022-08-29T11:25:33.179Z,24.20
2022-08-29T11:28:08.476Z,24.20
2022-08-29T11:30:47.965Z,24.10
2022-08-29T11:33:29.927Z,24.10
2022-08-29T11:36:26.649Z,24.20
2022-08-29T11:39:33.902Z,24.20
2022-08-29T11:42:08.566Z,24.30
2022-08-29T11:44:40.304Z,24.30
2022-08-29T11:47:41.044Z,24.30
2022-08-29T11:50:24.511Z,24.40
2022-08-29T11:52:57.952Z,24.40
2022-08-29T11:55:37.098Z,24.40
2022-08-29T11:58:46.693Z,24.40
2022-08-29T12:02:02.120Z,24.40
2022-08-29T14:33:53.355Z,27.00
2022-08-29T15:01:02.629Z,26.80
2022-08-29T15:13:51.863Z,26.90
2022-08-29T15:18:00.899Z,26.90
2022-08-29T15:27:15.965Z,26.90
2022-08-29T15:30:10.702Z,26.90
2022-08-29T15:33:49.318Z,26.80
2022-08-29T15:36:43.046Z,26.80
2022-08-29T15:43:22.306Z,26.80
2022-08-29T15:49:50.182Z,26.80
2022-08-29T15:53:32.339Z,26.80
2022-08-29T15:56:39.318Z,26.70
2022-08-29T15:59:57.978Z,26.80
2022-08-29T16:17:42.928Z,26.60
2022-08-29T16:28:14.480Z,26.50
2022-08-29T16:32:20.342Z,26.50
2022-08-29T16:43:11.382Z,26.40
2022-08-29T16:47:44.137Z,26.30
2022-08-29T16:55:09.129Z,26.30
2022-08-29T17:02:03.673Z,26.20
2022-08-29T17:05:12.368Z,26.20
2022-08-29T17:08:14.061Z,26.20
2022-08-29T17:14:05.045Z,26.10
2022-08-29T17:16:41.033Z,26.10
2022-08-29T17:19:37.867Z,26.10
2022-08-29T17:22:27.837Z,26.10
2022-08-29T17:25:56.069Z,26.10
2022-08-29T17:28:49.078Z,26.00
2022-08-29T17:31:38.623Z,26.00
2022-08-29T17:34:43.287Z,26.00
2022-08-29T17:41:35.027Z,26.00
2022-08-29T17:44:57.811Z,26.00
2022-08-29T17:47:55.177Z,25.90
2022-08-29T17:50:48.853Z,25.90
2022-08-29T17:53:34.645Z,25.90
2022-08-29T17:56:44.127Z,25.90
2022-08-29T17:59:37.014Z,25.80
2022-08-29T18:02:33.050Z,25.80
2022-08-29T18:05:27.499Z,25.80
2022-08-29T18:08:11.910Z,25.70
2022-08-29T18:11:05.557Z,25.70
2022-08-29T18:13:38.834Z,25.60
2022-08-29T18:16:15.776Z,25.60
2022-08-29T18:18:56.503Z,25.60
2022-08-29T18:21:43.342Z,25.60
2022-08-29T18:24:16.436Z,25.60
2022-08-29T18:26:53.589Z,25.50
2022-08-29T18:29:32.906Z,25.50
2022-08-29T18:32:37.208Z,25.50
2022-08-29T18:35:15.539Z,25.50
2022-08-29T18:37:48.645Z,25.40
2022-08-29T18:40:31.037Z,25.40
2022-08-29T18:43:10.009Z,25.40
2022-08-29T18:45:53.441Z,25.40
2022-08-29T18:48:29.622Z,25.30
2022-08-29T18:51:07.789Z,25.40
2022-08-29T18:54:09.351Z,25.30
2022-08-29T18:56:50.599Z,25.30
2022-08-29T18:59:29.777Z,25.20
2022-08-29T19:02:02.284Z,25.20
2022-08-29T19:04:36.682Z,25.20
2022-08-29T19:07:09.957Z,25.20
2022-08-29T19:09:44.016Z,25.10
2022-08-29T19:12:17.566Z,25.20
2022-08-29T19:14:54.200Z,25.10
2022-08-29T19:17:41.220Z,25.10
2022-08-29T19:20:50.702Z,25.00
2022-08-29T19:23:27.306Z,25.00
2022-08-29T19:26:14.417Z,25.00
2022-08-29T19:28:46.997Z,25.00
2022-08-29T19:31:18.503Z,25.00
2022-08-29T19:33:52.335Z,25.00
2022-08-29T19:36:28.568Z,25.00
2022-08-29T19:38:58.222Z,24.90
2022-08-29T19:41:28.677Z,24.90
2022-08-29T19:44:00.672Z,24.90
2022-08-29T19:46:32.918Z,24.90
2022-08-29T19:49:02.561Z,24.90
2022-08-29T19:51:36.875Z,24.80
2022-08-29T19:54:06.934Z,24.80
2022-08-29T19:56:37.026Z,24.80
2022-08-29T19:59:07.875Z,24.80
2022-08-29T20:01:42.589Z,24.70
2022-08-29T20:04:17.005Z,24.70
2022-08-29T20:07:00.036Z,24.70
2022-08-29T20:09:32.754Z,24.60
2022-08-29T20:12:04.681Z,24.60
2022-08-29T20:14:37.303Z,24.60
2022-08-29T20:17:09.548Z,24.60
2022-08-29T20:19:40.913Z,24.60
2022-08-29T20:22:13.358Z,24.60
2022-08-29T20:24:46.952Z,24.60
2022-08-29T20:27:18.669Z,24.50
2022-08-29T20:29:50.008Z,24.50
2022-08-29T20:32:24.270Z,24.40
2022-08-29T20:34:56.979Z,24.40
2022-08-29T20:37:28.997Z,24.40
2022-08-29T20:40:02.336Z,24.40
2022-08-29T20:42:42.336Z,24.40
2022-08-29T20:45:15.108Z,24.40
2022-08-29T20:47:46.744Z,24.40
2022-08-29T20:50:18.288Z,24.30
2022-08-29T20:52:54.265Z,24.30
2022-08-29T20:55:26.757Z,24.30
2022-08-29T20:57:58.543Z,24.30
2022-08-29T21:00:46.442Z,24.30
2022-08-29T21:03:37.019Z,24.30
2022-08-29T21:06:11.283Z,24.20
2022-08-29T21:08:50.582Z,24.20
2022-08-29T21:11:24.016Z,24.20
2022-08-29T21:13:56.642Z,24.20
2022-08-29T21:16:26.904Z,24.20
2022-08-29T21:18:57.032Z,24.20
2022-08-29T21:21:27.354Z,24.20
2022-08-29T21:23:58.832Z,24.20
2022-08-29T21:26:28.943Z,24.20
2022-08-29T21:28:59.685Z,24.20
2022-08-29T21:31:30.536Z,24.20
2022-08-29T21:34:06.358Z,24.20
2022-08-29T21:36:39.492Z,24.20
2022-08-29T21:39:12.217Z,24.20
2022-08-29T21:41:44.098Z,24.20
2022-08-29T21:44:14.834Z,24.20
2022-08-29T21:46:46.642Z,24.10
2022-08-29T21:49:19.741Z,24.20
2022-08-29T21:51:49.662Z,24.20
2022-08-29T21:54:20.090Z,24.10
2022-08-29T21:56:50.257Z,24.10
2022-08-29T21:59:21.949Z,24.10
2022-08-29T22:01:54.623Z,24.10
2022-08-29T22:04:27.926Z,24.10
2022-08-29T22:06:59.514Z,24.10
2022-08-29T22:09:32.374Z,24.10
2022-08-29T22:12:01.925Z,24.10
2022-08-29T22:14:45.149Z,24.00
2022-08-29T22:17:14.745Z,24.00
2022-08-29T22:19:43.570Z,24.00
2022-08-29T22:22:12.440Z,24.00
2022-08-29T22:24:42.659Z,24.00
2022-08-29T22:27:11.628Z,23.90
2022-08-29T22:29:41.165Z,24.00
2022-08-29T22:32:09.872Z,23.90
2022-08-29T22:34:38.574Z,23.90
2022-08-29T22:37:07.487Z,23.80
2022-08-29T22:39:36.271Z,23.80
2022-08-29T22:42:06.891Z,23.80
2022-08-29T22:45:02.169Z,23.80
2022-08-29T22:47:25.668Z,23.80
2022-08-29T22:49:55.370Z,23.70
2022-08-29T22:52:24.158Z,23.80
2022-08-29T22:54:52.842Z,23.70
2022-08-29T22:57:23.263Z,23.70
2022-08-29T22:59:52.073Z,23.70
2022-08-29T23:02:22.238Z,23.70
2022-08-29T23:04:52.673Z,23.70
2022-08-29T23:07:21.568Z,23.70
2022-08-29T23:09:50.716Z,23.70
2022-08-29T23:12:21.719Z,23.70
2022-08-29T23:14:52.531Z,23.70
2022-08-29T23:17:21.283Z,23.70
2022-08-29T23:19:50.165Z,23.70
2022-08-29T23:22:19.084Z,23.70
2022-08-29T23:24:58.496Z,23.60
2022-08-29T23:27:28.618Z,23.60
2022-08-29T23:29:59.065Z,23.60
2022-08-29T23:32:28.830Z,23.60
2022-08-29T23:34:57.844Z,23.50
2022-08-29T23:37:27.201Z,23.50
2022-08-29T23:39:56.413Z,23.50
2022-08-29T23:42:25.130Z,23.50
2022-08-29T23:44:54.043Z,23.50
2022-08-29T23:47:24.351Z,23.40
2022-08-29T23:49:53.225Z,23.40
2022-08-29T23:52:21.947Z,23.40
2022-08-29T23:54:50.719Z,23.40
2022-08-29T23:57:19.593Z,23.50
